EST,Max TemperatureF,Mean TemperatureF,Min TemperatureF,Max Dew PointF,MeanDew PointF,Min DewpointF,Max Humidity, Mean Humidity, Min Humidity, Max Sea Level PressureIn, Mean Sea Level PressureIn, Min Sea Level PressureIn, Max VisibilityMiles, Mean VisibilityMiles, Min VisibilityMiles, Max Wind SpeedMPH, Mean Wind SpeedMPH, Max Gust SpeedMPH,PrecipitationIn, CloudCover, Events, WindDirDegrees
2013-2-1,14,7,0,7,0,-8,85,71,57,30.09,30.02,29.85,10,9,2,15,9,20,0.00,6,Snow,271
2013-2-2,15,5,-5,9,-3,-11,85,73,58,30.06,30.02,29.98,10,9,0,12,7,18,0.00,5,Snow,306
2013-2-3,17,6,-5,7,-2,-11,85,70,53,29.97,29.87,29.78,10,9,2,22,6,31,0.00,5,Snow,278
2013-2-4,15,5,-5,1,-3,-9,85,68,49,29.96,29.93,29.88,10,10,10,12,8,17,0.00,2,,302
2013-2-5,23,14,5,18,8,-2,86,74,49,29.99,29.79,29.66,10,8,0,17,7,24,0.00,7,Snow,279
2013-2-6,23,12,0,16,7,-4,86,73,54,30.20,30.14,30.00,10,7,1,8,4,,0.00,6,Snow,268
2013-2-7,19,17,15,16,14,12,93,85,79,30.19,30.16,30.13,10,7,2,15,9,22,0.00,8,Snow,43
2013-2-8,24,12,-2,16,10,-6,86,75,50,30.38,30.28,30.15,10,10,2,16,11,22,0.00,3,Snow,358
2013-2-9,32,12,-7,27,10,-13,86,82,77,30.39,30.27,30.11,10,10,0,18,5,25,0.00,5,Snow,169
2013-2-10,33,30,26,30,26,21,93,84,69,30.12,29.88,29.45,10,8,1,18,7,28,0.00,8,Snow,111
2013-2-11,37,30,21,36,28,16,93,86,74,29.77,29.44,29.29,10,6,1,28,11,37,0.00,8,Rain-Snow,239
2013-2-12,26,24,21,19,17,14,86,74,59,29.93,29.85,29.77,10,10,10,14,10,20,0.00,7,Snow,255
2013-2-13,33,28,23,28,23,19,93,82,70,29.78,29.66,29.62,10,9,4,9,7,,0.00,6,,215
2013-2-14,33,27,21,28,23,16,93,85,69,29.86,29.68,29.62,10,5,1,23,7,31,0.00,8,Snow,334
2013-2-15,21,14,6,16,10,0,86,73,49,30.12,30.03,29.87,10,9,1,18,9,26,0.00,7,Snow,313
2013-2-16,17,8,0,7,1,-4,85,73,49,30.14,30.08,30.04,10,10,3,10,7,,0.00,5,Snow,336
2013-2-17,19,10,0,10,3,-6,92,68,42,30.15,30.10,30.01,10,10,10,10,5,,0.00,3,Snow,245
2013-2-18,35,25,15,30,24,9,87,78,69,30.01,29.71,29.39,10,9,2,21,12,26,0.00,8,Snow,140
2013-2-19,32,23,14,30,20,9,93,86,73,29.87,29.48,29.22,7,2,0,28,15,41,0.00,8,Snow,316
2013-2-20,19,16,12,16,10,7,86,79,68,30.30,30.14,29.88,10,4,1,28,14,34,0.00,8,Snow,334
2013-2-21,23,18,12,18,14,10,92,81,74,30.43,30.36,30.30,10,10,5,23,12,29,0.00,6,Snow,4
2013-2-22,28,20,12,25,17,10,93,86,79,30.30,30.03,29.78,10,6,0,16,8,23,0.00,7,Snow,64
2013-2-23,28,26,23,25,22,19,93,84,74,29.81,29.76,29.73,10,7,1,9,2,,0.00,8,Snow,206
2013-2-24,33,25,17,28,22,16,93,83,65,30.12,29.98,29.81,10,9,1,10,3,,0.00,7,Snow,318
2013-2-25,33,30,26,28,25,21,87,82,70,30.15,30.13,30.11,10,10,10,9,3,,0.00,8,,166
2013-2-26,33,30,28,28,25,21,93,78,60,30.14,30.03,29.86,10,10,7,18,7,26,0.00,7,,68
2013-2-27,33,30,26,30,27,21,93,85,74,29.85,29.76,29.71,10,6,1,17,13,21,0.00,7,Snow,11
2013-2-28,32,26,21,28,21,12,93,78,64,30.15,29.94,29.78,10,8,2,24,16,32,0.00,7,Snow,1